Time;durP1;ratioP1;P1;durP2;ratioP2;P2;SDS_P1;SDS_P2;PMS_P1;PMS_P2;Temp;Humidity;BMP_temperature;BMP_pressure;BME280_temperature;BME280_humidity;BME280_pressure;Samples;Min_cycle;Max_cycle;Signal;HPM_P1;HPM_P2
2022/10/28 00:01:48;;;;;;;13.00;4.90;;;13.90;99.90;;;;;;5055314;28;20091;-77
2022/10/28 00:04:13;;;;;;;6.75;4.30;;;13.80;99.90;;;;;;5053882;28;20025;-77
2022/10/28 00:06:39;;;;;;;11.40;4.55;;;13.80;99.90;;;;;;5060348;28;20036;-77
2022/10/28 00:09:04;;;;;;;9.18;4.22;;;13.80;99.90;;;;;;5058651;28;20052;-77
2022/10/28 00:11:32;;;;;;;10.25;4.07;;;13.80;99.90;;;;;;5054515;28;20071;-77
2022/10/28 00:14:01;;;;;;;13.32;4.05;;;13.70;99.90;;;;;;5056888;28;20029;-77
2022/10/28 00:16:29;;;;;;;11.45;4.30;;;13.70;99.90;;;;;;5054994;28;20317;-77
2022/10/28 00:18:56;;;;;;;12.55;3.78;;;13.70;99.90;;;;;;5053259;28;20373;-79
2022/10/28 00:21:25;;;;;;;11.07;3.72;;;13.70;99.90;;;;;;5051828;28;20108;-79
2022/10/28 00:23:51;;;;;;;6.38;3.50;;;13.60;99.90;;;;;;5054835;28;20854;-80
2022/10/28 00:26:20;;;;;;;11.98;3.97;;;13.60;99.90;;;;;;5053963;28;20061;-77
2022/10/28 00:28:48;;;;;;;7.93;3.92;;;13.60;99.90;;;;;;5050424;28;20020;-77
2022/10/28 00:31:16;;;;;;;11.68;3.70;;;13.60;99.90;;;;;;5053201;28;20013;-77
2022/10/28 00:33:43;;;;;;;10.80;3.55;;;13.60;99.90;;;;;;5052011;28;20129;-77
2022/10/28 00:36:11;;;;;;;12.50;3.33;;;13.60;99.90;;;;;;5048292;28;20021;-77
2022/10/28 00:38:38;;;;;;;8.65;3.75;;;13.50;99.90;;;;;;5049448;28;20056;-77
2022/10/28 00:41:03;;;;;;;8.45;3.30;;;13.50;99.90;;;;;;5043748;28;20059;-77
2022/10/28 00:43:43;;;;;;;10.30;4.00;;;13.50;99.90;;;;;;5042154;28;20053;-77
2022/10/28 00:46:27;;;;;;;11.27;3.75;;;13.50;99.90;;;;;;5039898;28;20452;-77
2022/10/28 00:49:04;;;;;;;14.23;3.95;;;13.50;99.90;;;;;;5043076;28;20056;-77
2022/10/28 00:51:33;;;;;;;8.32;3.42;;;13.40;99.90;;;;;;5037763;28;20108;-78
2022/10/28 00:53:58;;;;;;;8.05;3.38;;;13.40;99.90;;;;;;5043308;28;20029;-78
2022/10/28 00:56:30;;;;;;;8.65;3.70;;;13.40;99.90;;;;;;5040219;28;20499;-78
2022/10/28 00:58:59;;;;;;;11.93;3.63;;;13.40;99.90;;;;;;5037528;28;20405;-78
2022/10/28 01:01:25;;;;;;;13.77;3.70;;;13.40;99.90;;;;;;5041684;28;20053;-78
2022/10/28 01:03:51;;;;;;;7.47;3.60;;;13.30;99.90;;;;;;5041372;28;20059;-77
2022/10/28 01:06:20;;;;;;;19.65;4.10;;;13.30;99.90;;;;;;5036064;28;20539;-78
2022/10/28 01:08:46;;;;;;;11.73;4.07;;;13.30;99.90;;;;;;5038441;28;20056;-78
2022/10/28 01:11:31;;;;;;;10.73;3.60;;;13.30;99.90;;;;;;5042583;28;20570;-78
2022/10/28 01:14:14;;;;;;;13.13;3.70;;;13.20;99.90;;;;;;5037204;28;20035;-77
2022/10/28 01:17:19;;;;;;;11.23;4.13;;;13.20;99.90;;;;;;5043704;28;20020;-77
2022/10/28 01:19:48;;;;;;;9.00;3.63;;;13.20;99.90;;;;;;5041520;28;20086;-77
2022/10/28 01:22:22;;;;;;;10.20;3.70;;;13.20;99.90;;;;;;5041687;28;20567;-77
2022/10/28 01:25:12;;;;;;;12.77;3.58;;;13.10;99.90;;;;;;5040559;28;20053;-77
2022/10/28 01:28:05;;;;;;;7.72;3.45;;;13.10;99.90;;;;;;5032121;28;20033;-78
2022/10/28 01:31:12;;;;;;;8.55;3.75;;;13.10;99.90;;;;;;5045567;28;20017;-78
2022/10/28 01:34:00;;;;;;;12.63;4.22;;;13.00;99.90;;;;;;5057994;22;20509;-75
2022/10/28 01:36:35;;;;;;;10.93;3.65;;;13.00;99.90;;;;;;5113632;28;20080;-75
2022/10/28 01:39:29;;;;;;;9.68;3.67;;;13.00;99.90;;;;;;5115137;28;20016;-76
2022/10/28 01:42:17;;;;;;;11.38;4.05;;;13.00;99.90;;;;;;5113825;28;20134;-76
2022/10/28 01:45:01;;;;;;;10.18;3.55;;;12.90;99.90;;;;;;5115228;28;20055;-76
2022/10/28 01:47:38;;;;;;;10.02;3.92;;;12.90;99.90;;;;;;5113625;28;20031;-76
2022/10/28 01:50:25;;;;;;;8.25;3.50;;;12.90;99.90;;;;;;5113666;28;20067;-76
2022/10/28 01:53:01;;;;;;;11.70;4.28;;;12.80;99.90;;;;;;5113235;28;20422;-76
2022/10/28 01:55:37;;;;;;;12.18;3.58;;;12.80;99.90;;;;;;5114735;28;20022;-77
2022/10/28 01:58:06;;;;;;;9.27;4.07;;;12.70;99.90;;;;;;5113590;28;20046;-75
2022/10/28 02:00:37;;;;;;;11.52;3.58;;;12.70;99.90;;;;;;5115007;28;20045;-76
2022/10/28 02:03:08;;;;;;;8.15;3.78;;;12.60;99.90;;;;;;5114621;28;20023;-76
2022/10/28 02:05:38;;;;;;;11.85;3.97;;;12.70;99.90;;;;;;5114876;28;20041;-76
2022/10/28 02:08:42;;;;;;;11.30;3.83;;;12.70;99.90;;;;;;5114541;28;20475;-76
2022/10/28 02:11:20;;;;;;;5.03;3.65;;;12.60;99.90;;;;;;5113528;28;20445;-76
2022/10/28 02:13:56;;;;;;;10.77;4.10;;;12.60;99.90;;;;;;5113452;28;20047;-76
2022/10/28 02:16:44;;;;;;;9.07;3.83;;;12.60;99.90;;;;;;5113571;28;20028;-76
2022/10/28 02:19:48;;;;;;;12.15;4.78;;;12.60;99.90;;;;;;5115785;28;20027;-77
2022/10/28 02:22:42;;;;;;;9.27;3.60;;;12.50;99.90;;;;;;5091965;28;20066;-77
2022/10/28 02:25:31;;;;;;;9.45;4.20;;;12.50;99.90;;;;;;5087053;28;20117;-77
2022/10/28 02:28:15;;;;;;;11.05;4.78;;;12.60;99.90;;;;;;5095197;28;20024;-76
2022/10/28 02:30:56;;;;;;;9.55;3.58;;;12.50;99.90;;;;;;5093949;28;20406;-76
2022/10/28 02:33:27;;;;;;;12.52;3.60;;;12.50;99.90;;;;;;5092532;28;20158;-76
2022/10/28 02:36:05;;;;;;;10.50;3.63;;;12.50;99.90;;;;;;5093909;28;20020;-77
2022/10/28 02:38:48;;;;;;;11.30;3.90;;;12.40;99.90;;;;;;5093072;28;20024;-76
2022/10/28 02:41:34;;;;;;;9.90;3.35;;;12.40;99.90;;;;;;5093853;28;20077;-76
2022/10/28 02:44:09;;;;;;;7.05;3.30;;;12.40;99.90;;;;;;5093832;28;20020;-76
2022/10/28 02:46:39;;;;;;;14.07;4.25;;;12.30;99.90;;;;;;5095764;28;20071;-77
2022/10/28 02:49:12;;;;;;;7.97;3.40;;;12.30;99.90;;;;;;5093289;28;20076;-77
2022/10/28 02:51:45;;;;;;;9.60;3.13;;;12.30;99.90;;;;;;5122769;27;20032;-78
2022/10/28 02:54:16;;;;;;;9.80;4.18;;;12.30;99.90;;;;;;5119960;27;20027;-78
2022/10/28 02:56:50;;;;;;;11.98;3.30;;;12.30;99.90;;;;;;5116885;28;20027;-78
2022/10/28 02:59:18;;;;;;;11.50;3.88;;;12.30;99.90;;;;;;5113818;28;20137;-78
2022/10/28 03:01:44;;;;;;;19.33;4.45;;;12.30;99.90;;;;;;5112206;28;20047;-77
2022/10/28 03:04:12;;;;;;;10.27;4.07;;;12.30;99.90;;;;;;5114156;28;20043;-78
2022/10/28 03:06:41;;;;;;;12.32;3.95;;;12.20;99.90;;;;;;5116512;28;20027;-78
2022/10/28 03:09:16;;;;;;;15.15;4.30;;;12.20;99.90;;;;;;5115191;28;20501;-77
2022/10/28 03:11:41;;;;;;;10.10;3.88;;;12.20;99.90;;;;;;5102502;28;20053;-78
2022/10/28 03:14:07;;;;;;;11.85;3.65;;;12.20;99.90;;;;;;5115487;28;20015;-77
2022/10/28 03:16:33;;;;;;;10.65;4.40;;;12.20;99.90;;;;;;5114067;28;20031;-77
2022/10/28 03:18:58;;;;;;;10.20;4.93;;;12.20;99.90;;;;;;5112349;28;20020;-77
2022/10/28 03:21:27;;;;;;;10.05;4.00;;;12.10;99.90;;;;;;5110840;28;20085;-77
2022/10/28 03:23:53;;;;;;;15.57;3.88;;;12.10;99.90;;;;;;5114400;27;20023;-76
2022/10/28 03:26:18;;;;;;;10.68;3.30;;;12.10;99.90;;;;;;5116577;27;20050;-77
2022/10/28 03:28:44;;;;;;;11.25;4.00;;;12.10;99.90;;;;;;5111773;28;20041;-77
2022/10/28 03:31:11;;;;;;;9.85;4.15;;;12.10;99.90;;;;;;5110258;28;20349;-77
2022/10/28 03:33:48;;;;;;;8.18;3.45;;;12.20;99.90;;;;;;5101223;28;20027;-77
2022/10/28 03:36:14;;;;;;;10.73;3.63;;;12.20;99.90;;;;;;5122112;28;20015;-77
2022/10/28 03:38:42;;;;;;;11.90;4.05;;;12.20;99.90;;;;;;5111295;27;20107;-77
2022/10/28 03:41:08;;;;;;;8.90;3.60;;;12.20;99.90;;;;;;5111507;28;20024;-77
2022/10/28 03:43:34;;;;;;;10.82;3.35;;;12.30;99.90;;;;;;5113350;28;20076;-77
2022/10/28 03:45:59;;;;;;;15.00;4.60;;;12.30;99.90;;;;;;5112740;28;20405;-77
2022/10/28 03:48:25;;;;;;;9.25;3.70;;;12.30;99.90;;;;;;5111098;28;20042;-77
2022/10/28 03:50:54;;;;;;;10.85;3.83;;;12.30;99.90;;;;;;5112740;28;20030;-77
2022/10/28 03:53:28;;;;;;;11.90;3.95;;;12.40;99.90;;;;;;5114450;28;20462;-76
2022/10/28 03:55:56;;;;;;;9.00;4.22;;;12.40;99.90;;;;;;5112772;28;20119;-77
2022/10/28 03:58:24;;;;;;;11.93;3.58;;;12.40;99.90;;;;;;5112671;28;20023;-77
2022/10/28 04:00:51;;;;;;;15.00;4.38;;;12.50;99.90;;;;;;5106467;28;20084;-77
2022/10/28 04:03:18;;;;;;;12.57;4.55;;;12.50;99.90;;;;;;5113161;28;20031;-77
2022/10/28 04:05:47;;;;;;;8.70;3.90;;;12.50;99.90;;;;;;5123416;28;20396;-77
2022/10/28 04:08:13;;;;;;;8.00;3.65;;;12.50;99.90;;;;;;5108454;28;20042;-76
2022/10/28 04:10:39;;;;;;;10.05;3.95;;;12.50;99.90;;;;;;5111800;28;20038;-77
2022/10/28 04:13:08;;;;;;;12.77;3.67;;;12.50;99.90;;;;;;5113330;28;20524;-77
2022/10/28 04:15:43;;;;;;;11.35;3.88;;;12.50;99.90;;;;;;5115212;28;20016;-77
2022/10/28 04:18:12;;;;;;;8.10;3.50;;;12.50;99.90;;;;;;5117605;28;20016;-77
2022/10/28 04:20:41;;;;;;;11.57;4.45;;;12.60;99.90;;;;;;5118101;28;20024;-77
2022/10/28 04:23:07;;;;;;;11.65;3.97;;;12.60;99.90;;;;;;5116063;28;20028;-77
2022/10/28 04:25:36;;;;;;;10.73;4.43;;;12.60;99.90;;;;;;5116499;28;20022;-77
2022/10/28 04:28:01;;;;;;;11.93;4.07;;;12.60;99.90;;;;;;5103350;28;20111;-78
2022/10/28 04:30:27;;;;;;;14.32;4.30;;;12.60;99.90;;;;;;5115103;28;20047;-77
2022/10/28 04:32:53;;;;;;;10.75;3.90;;;12.60;99.90;;;;;;5117051;28;20011;-77
2022/10/28 04:35:18;;;;;;;15.82;4.03;;;12.70;99.90;;;;;;5116926;28;20027;-78
2022/10/28 04:37:44;;;;;;;12.32;4.00;;;12.70;99.90;;;;;;5115032;28;20023;-78
2022/10/28 04:40:10;;;;;;;8.32;3.80;;;12.70;99.90;;;;;;5115517;27;20069;-77
2022/10/28 04:42:36;;;;;;;8.05;3.65;;;12.70;99.90;;;;;;5116629;28;20075;-78
2022/10/28 04:45:08;;;;;;;7.88;3.80;;;12.70;99.90;;;;;;5115787;28;20095;-78
2022/10/28 04:47:37;;;;;;;17.92;4.85;;;12.80;99.90;;;;;;5131945;27;20023;-78
2022/10/28 04:50:03;;;;;;;12.32;4.70;;;12.80;99.90;;;;;;5116047;28;20065;-78
2022/10/28 04:52:31;;;;;;;12.98;4.53;;;12.80;99.90;;;;;;5116785;28;20039;-78
2022/10/28 04:54:57;;;;;;;17.65;4.53;;;12.80;99.90;;;;;;5116523;28;20152;-78
2022/10/28 04:57:26;;;;;;;12.45;4.47;;;12.80;99.90;;;;;;5110785;28;20452;-78
2022/10/28 04:59:51;;;;;;;12.07;4.65;;;12.80;99.90;;;;;;5115071;28;20108;-76
2022/10/28 05:02:17;;;;;;;11.95;4.40;;;12.80;99.90;;;;;;5102582;28;20495;-72
2022/10/28 05:04:49;;;;;;;14.10;5.32;;;12.90;99.90;;;;;;5107596;28;20239;-71
2022/10/28 05:07:14;;;;;;;22.08;4.82;;;12.90;99.90;;;;;;5107359;28;20375;-72
2022/10/28 05:09:40;;;;;;;11.18;4.75;;;12.90;99.90;;;;;;5105911;28;20027;-72
2022/10/28 05:12:14;;;;;;;18.05;5.22;;;12.90;99.90;;;;;;5109307;28;20114;-72
2022/10/28 05:14:40;;;;;;;14.05;4.30;;;13.00;99.90;;;;;;5102445;28;20149;-72
2022/10/28 05:17:07;;;;;;;10.48;4.30;;;13.00;99.90;;;;;;5105355;28;20099;-72
2022/10/28 05:19:33;;;;;;;13.95;5.03;;;13.00;99.90;;;;;;5104934;28;20020;-73
2022/10/28 05:21:59;;;;;;;10.65;4.82;;;13.00;99.90;;;;;;5097880;28;20042;-73
2022/10/28 05:24:24;;;;;;;11.57;5.50;;;12.90;99.90;;;;;;5109260;28;20027;-73
2022/10/28 05:26:50;;;;;;;18.48;5.57;;;12.90;99.90;;;;;;5111900;28;20103;-78
2022/10/28 05:29:18;;;;;;;17.45;5.38;;;12.90;99.90;;;;;;5118848;28;20118;-80
2022/10/28 05:31:44;;;;;;;13.93;5.97;;;12.90;99.90;;;;;;5109507;28;20036;-79
2022/10/28 05:34:10;;;;;;;15.35;5.60;;;12.90;99.90;;;;;;5123904;27;20057;-79
2022/10/28 05:36:35;;;;;;;16.00;4.93;;;12.80;99.90;;;;;;5107465;27;20515;-79
2022/10/28 05:41:30;;;;;;;11.90;5.18;;;12.80;99.90;;;;;;5087176;28;20500;-78
2022/10/28 05:43:56;;;;;;;13.95;4.32;;;12.80;99.90;;;;;;5091128;28;20073;-78
2022/10/28 05:46:30;;;;;;;14.38;5.35;;;12.90;99.90;;;;;;5102867;28;20028;-79
2022/10/28 05:48:56;;;;;;;12.90;4.88;;;12.80;99.90;;;;;;5105695;28;20028;-79
2022/10/28 05:51:22;;;;;;;15.73;5.50;;;12.80;99.90;;;;;;5057840;28;20021;-77
2022/10/28 05:53:49;;;;;;;15.77;4.72;;;12.90;99.90;;;;;;5073642;28;20035;-78
2022/10/28 05:56:16;;;;;;;12.00;5.03;;;12.90;99.90;;;;;;5074598;28;20408;-81
2022/10/28 05:58:44;;;;;;;17.02;6.15;;;12.90;99.90;;;;;;5062788;28;20105;-79
2022/10/28 06:01:13;;;;;;;20.38;6.55;;;12.90;99.90;;;;;;5055550;28;20407;-80
2022/10/28 06:03:42;;;;;;;14.80;6.63;;;12.90;99.90;;;;;;5067548;28;20124;-79
2022/10/28 06:06:07;;;;;;;15.38;5.85;;;12.90;99.90;;;;;;5068501;28;20397;-79
2022/10/28 06:08:36;;;;;;;12.68;5.53;;;12.90;99.90;;;;;;5071925;28;20020;-79
2022/10/28 06:11:08;;;;;;;16.20;5.72;;;13.00;99.90;;;;;;5050489;28;20024;-79
2022/10/28 06:13:42;;;;;;;18.92;6.05;;;13.00;99.90;;;;;;5050918;28;20044;-79
2022/10/28 06:16:14;;;;;;;16.40;5.50;;;13.00;99.90;;;;;;5070736;28;20040;-79
2022/10/28 06:18:42;;;;;;;14.70;6.18;;;13.00;99.90;;;;;;5058509;28;20430;-79
2022/10/28 06:21:13;;;;;;;15.45;5.85;;;13.00;99.90;;;;;;5068643;28;20032;-80
2022/10/28 06:23:39;;;;;;;17.15;5.78;;;13.10;99.90;;;;;;5069638;28;20033;-79
2022/10/28 06:26:08;;;;;;;14.73;5.70;;;13.10;99.90;;;;;;5054402;28;20035;-78
2022/10/28 06:28:34;;;;;;;16.98;6.00;;;13.10;99.90;;;;;;5074637;28;20477;-79
2022/10/28 06:31:26;;;;;;;17.65;7.22;;;13.10;99.90;;;;;;5076805;28;20027;-79
2022/10/28 06:33:56;;;;;;;13.35;5.28;;;13.10;99.90;;;;;;5024595;28;20040;-79
2022/10/28 06:36:46;;;;;;;12.90;5.57;;;13.10;99.90;;;;;;5056579;28;20025;-79
2022/10/28 06:39:15;;;;;;;19.08;6.30;;;13.10;99.90;;;;;;5067927;28;20032;-79
2022/10/28 06:41:41;;;;;;;12.60;5.15;;;13.10;99.90;;;;;;5054133;28;20028;-77
2022/10/28 06:44:09;;;;;;;17.40;5.65;;;13.20;99.90;;;;;;5052584;28;20389;-78
2022/10/28 06:46:44;;;;;;;15.75;5.38;;;13.20;99.90;;;;;;5049263;28;20044;-78
2022/10/28 06:49:13;;;;;;;11.85;5.70;;;13.20;99.90;;;;;;5037726;28;20033;-78
2022/10/28 06:51:44;;;;;;;13.82;5.72;;;13.20;99.90;;;;;;5034549;28;20024;-79
2022/10/28 06:54:19;;;;;;;17.20;6.60;;;13.20;99.90;;;;;;5034359;28;20021;-78
2022/10/28 06:56:46;;;;;;;16.55;6.68;;;13.20;99.90;;;;;;5053574;28;20417;-78
2022/10/28 06:59:30;;;;;;;15.55;6.43;;;13.20;99.90;;;;;;5054736;28;20053;-79
2022/10/28 07:01:55;;;;;;;19.15;6.35;;;13.20;99.90;;;;;;5053580;28;20035;-77
2022/10/28 07:04:24;;;;;;;18.60;6.68;;;13.30;99.90;;;;;;5054230;28;20443;-77
2022/10/28 07:06:54;;;;;;;13.57;6.32;;;13.30;99.90;;;;;;5047504;28;20453;-80
2022/10/28 07:09:20;;;;;;;24.60;6.90;;;13.30;99.90;;;;;;5048339;28;20036;-78
2022/10/28 07:11:49;;;;;;;21.55;6.05;;;13.30;99.90;;;;;;5049666;28;20475;-78
2022/10/28 07:14:23;;;;;;;15.27;6.13;;;13.30;99.90;;;;;;5050120;28;20090;-78
2022/10/28 07:17:02;;;;;;;13.68;5.53;;;13.40;99.90;;;;;;5034477;28;20021;-78
2022/10/28 07:19:51;;;;;;;11.80;5.20;;;13.40;99.90;;;;;;5047748;28;20033;-78
2022/10/28 07:22:26;;;;;;;15.18;6.35;;;13.50;99.90;;;;;;5020105;28;20051;-77
2022/10/28 07:25:16;;;;;;;16.65;6.72;;;13.50;99.90;;;;;;5045654;28;20032;-79
2022/10/28 07:27:42;;;;;;;14.90;6.30;;;13.50;99.90;;;;;;5047569;28;20055;-80
2022/10/28 07:30:08;;;;;;;22.25;6.53;;;13.60;99.90;;;;;;5046078;28;20656;-78
2022/10/28 07:32:34;;;;;;;12.07;5.72;;;13.70;99.90;;;;;;5046552;28;20036;-78
2022/10/28 07:35:00;;;;;;;12.80;5.28;;;13.70;99.90;;;;;;5052065;28;20025;-78
2022/10/28 07:37:25;;;;;;;15.27;7.15;;;13.80;99.90;;;;;;5052259;28;20055;-78
2022/10/28 07:39:51;;;;;;;18.70;6.85;;;13.90;99.90;;;;;;5047747;28;20021;-79
2022/10/28 07:42:22;;;;;;;21.77;8.07;;;13.90;99.90;;;;;;5047499;28;20048;-79
2022/10/28 07:44:50;;;;;;;17.65;7.10;;;14.00;99.90;;;;;;5046508;28;20048;-78
2022/10/28 07:47:18;;;;;;;18.08;6.43;;;14.00;99.90;;;;;;5051260;28;20025;-78
2022/10/28 07:49:55;;;;;;;15.05;5.47;;;14.00;99.90;;;;;;5050033;28;20037;-78
2022/10/28 07:52:27;;;;;;;18.90;5.70;;;14.00;99.90;;;;;;5035602;28;20017;-79
2022/10/28 07:55:09;;;;;;;14.60;5.85;;;14.00;99.90;;;;;;5053859;28;20032;-78
2022/10/28 07:58:10;;;;;;;18.23;5.80;;;14.10;99.90;;;;;;5056563;28;20535;-77
2022/10/28 08:00:36;;;;;;;13.95;5.20;;;14.00;99.90;;;;;;5032580;28;20580;-79
2022/10/28 08:03:14;;;;;;;16.08;5.15;;;14.00;99.90;;;;;;5027663;28;20059;-78
2022/10/28 08:05:39;;;;;;;11.35;4.95;;;14.00;99.90;;;;;;5055302;28;20036;-78
2022/10/28 08:09:10;;;;;;;;;;;;;;;;;;;;;
2022/10/28 08:11:39;;;;;;;14.75;5.43;;;14.10;99.90;;;;;;5000827;28;20486;-78
2022/10/28 08:14:07;;;;;;;15.70;5.32;;;14.20;99.90;;;;;;5051693;28;20470;-78
2022/10/28 10:16:12;;;;;;;9.43;4.55;;;17.00;99.90;;;;;;4898258;29;20055;-77
2022/10/28 10:18:45;;;;;;;15.60;4.45;;;17.00;99.90;;;;;;4716738;29;20515;-77
2022/10/28 10:21:15;;;;;;;8.88;4.22;;;17.10;99.90;;;;;;4566401;31;20057;-78
2022/10/28 10:39:25;;;;;;;18.63;3.53;;;17.50;99.90;;;;;;4781717;29;20118;-79
2022/10/28 10:41:54;;;;;;;14.07;3.33;;;17.50;99.90;;;;;;4671773;30;20043;-79
2022/10/28 10:44:19;;;;;;;12.07;4.35;;;17.60;99.90;;;;;;4571769;30;20049;-78
2022/10/28 10:46:52;;;;;;;12.73;4.35;;;17.70;99.90;;;;;;4514924;31;20384;-77
2022/10/28 10:50:49;;;;;;;12.05;4.35;;;17.80;99.90;;;;;;5156375;27;20129;-77
2022/10/28 10:53:31;;;;;;;14.77;5.45;;;18.10;99.90;;;;;;5157775;27;20050;-77
2022/10/28 10:56:09;;;;;;;12.75;4.57;;;18.20;99.90;;;;;;5153825;27;20039;-79
2022/10/28 10:58:39;;;;;;;11.13;4.50;;;18.30;99.90;;;;;;5134177;27;20021;-78
2022/10/28 11:01:06;;;;;;;9.02;3.88;;;18.40;99.90;;;;;;4981049;28;20034;-79
2022/10/28 11:03:53;;;;;;;9.15;4.07;;;18.50;99.90;;;;;;4912560;29;20095;-77
2022/10/28 11:06:40;;;;;;;14.80;5.05;;;18.50;99.90;;;;;;4725885;29;20043;-78
2022/10/28 11:10:01;;;;;;;10.70;3.90;;;18.60;99.90;;;;;;5131152;27;20752;-76
2022/10/28 11:12:34;;;;;;;8.45;4.22;;;18.60;99.90;;;;;;5103734;28;20479;-77
2022/10/28 11:15:18;;;;;;;9.52;3.95;;;18.70;99.90;;;;;;5110756;28;20077;-76
2022/10/28 11:18:15;;;;;;;14.10;4.43;;;18.80;99.90;;;;;;5126302;28;20034;-75
2022/10/28 11:20:42;;;;;;;9.93;4.07;;;18.80;99.90;;;;;;5109347;28;20027;-77
2022/10/28 11:23:42;;;;;;;10.77;3.83;;;18.80;99.90;;;;;;5110550;28;20400;-76
2022/10/28 11:26:12;;;;;;;12.48;3.78;;;18.70;99.90;;;;;;5110252;28;20024;-77
2022/10/28 11:29:03;;;;;;;10.02;3.78;;;18.70;99.90;;;;;;5111104;28;20028;-77
2022/10/28 11:31:54;;;;;;;11.93;4.05;;;18.70;99.90;;;;;;5105944;28;20047;-76
2022/10/28 11:34:34;;;;;;;10.02;3.33;;;18.70;99.90;;;;;;5098524;28;20516;-76
2022/10/28 11:37:42;;;;;;;8.55;3.50;;;18.60;99.90;;;;;;5106777;28;20072;-77
2022/10/28 11:40:38;;;;;;;10.55;3.10;;;18.60;99.90;;;;;;5112640;28;20016;-77
2022/10/28 11:43:35;;;;;;;7.10;2.45;;;18.70;99.90;;;;;;5108657;28;20500;-76
2022/10/28 11:46:19;;;;;;;11.52;3.63;;;18.80;99.90;;;;;;5110062;28;20078;-76
2022/10/28 11:49:09;;;;;;;;;;;18.90;99.90;;;;;;5108826;28;20590;-77
2022/10/28 11:52:02;;;;;;;12.20;2.88;;;18.90;99.90;;;;;;5107715;28;20386;-77
2022/10/28 11:54:45;;;;;;;10.38;3.17;;;19.00;99.90;;;;;;5088010;28;20026;-76
2022/10/28 11:57:16;;;;;;;10.00;2.97;;;19.00;99.90;;;;;;5092814;28;20021;-76
2022/10/28 12:00:12;;;;;;;12.27;3.25;;;19.00;99.90;;;;;;5087730;28;20036;-77
2022/10/28 12:03:11;;;;;;;8.90;3.60;;;19.00;99.90;;;;;;5087790;28;20020;-77
2022/10/28 12:05:37;;;;;;;8.98;3.30;;;19.00;99.90;;;;;;5106880;28;20046;-77
2022/10/28 12:08:51;;;;;;;11.15;3.72;;;19.10;99.90;;;;;;5108013;28;20027;-76
2022/10/28 12:12:04;;;;;;;10.43;3.00;;;19.10;99.90;;;;;;5106815;28;20082;-76
2022/10/28 12:14:49;;;;;;;9.95;3.33;;;19.30;99.90;;;;;;5106841;28;20028;-76
2022/10/28 12:17:17;;;;;;;;;;;19.30;99.90;;;;;;5108102;28;20126;-77
2022/10/28 12:20:30;;;;;;;17.35;3.97;;;19.40;99.90;;;;;;5105100;28;19910;-76
2022/10/28 12:23:15;;;;;;;12.73;4.35;;;19.50;99.90;;;;;;5073617;28;20548;-77
2022/10/28 12:25:52;;;;;;;12.90;4.55;;;19.60;99.90;;;;;;5096152;28;20114;-77
2022/10/28 12:28:23;;;;;;;14.00;4.85;;;19.60;99.90;;;;;;5095241;28;20035;-77
2022/10/28 12:30:50;;;;;;;8.35;3.65;;;19.70;99.90;;;;;;5095210;28;20016;-77
2022/10/28 12:33:34;;;;;;;11.07;4.07;;;19.70;99.90;;;;;;5094211;28;20031;-77
2022/10/28 12:36:06;;;;;;;12.20;3.85;;;19.90;99.90;;;;;;5095636;28;20092;-76
2022/10/28 12:38:48;;;;;;;14.18;4.65;;;20.00;99.90;;;;;;5096264;28;20058;-77
2022/10/28 12:41:24;;;;;;;9.57;3.83;;;20.00;99.90;;;;;;5091731;28;20032;-77
2022/10/28 12:44:02;;;;;;;14.52;4.82;;;20.10;99.90;;;;;;5093168;28;20102;-77
2022/10/28 12:46:47;;;;;;;12.80;3.75;;;20.20;99.90;;;;;;5094745;28;20457;-77
2022/10/28 12:49:51;;;;;;;13.93;4.75;;;20.30;99.90;;;;;;5092433;28;20027;-78
2022/10/28 12:52:40;;;;;;;8.80;3.47;;;20.30;99.90;;;;;;5094698;28;20020;-77
2022/10/28 12:55:29;;;;;;;6.78;2.92;;;20.40;99.90;;;;;;5084049;28;20082;-77
2022/10/28 12:58:34;;;;;;;12.90;4.25;;;20.50;99.90;;;;;;5095282;28;20028;-77
2022/10/28 13:01:08;;;;;;;12.63;4.45;;;20.50;99.90;;;;;;5094824;28;20476;-76
2022/10/28 13:03:35;;;;;;;13.73;4.90;;;20.70;99.90;;;;;;5095054;28;20036;-77
2022/10/28 13:06:31;;;;;;;9.73;4.57;;;20.80;99.90;;;;;;5094331;28;20048;-76
2022/10/28 13:09:19;;;;;;;16.20;5.10;;;20.90;99.90;;;;;;5092336;28;20035;-76
2022/10/28 13:11:44;;;;;;;21.42;5.40;;;20.90;99.90;;;;;;5073532;28;20112;-77
2022/10/28 13:14:35;;;;;;;15.77;5.65;;;20.90;99.90;;;;;;5074928;28;20056;-76
2022/10/28 13:17:25;;;;;;;11.70;5.13;;;20.90;99.90;;;;;;5075061;28;20024;-75
2022/10/28 13:20:21;;;;;;;14.05;5.13;;;21.00;99.90;;;;;;5092517;28;20027;-76
2022/10/28 13:23:25;;;;;;;14.63;5.40;;;21.00;99.90;;;;;;5094450;28;20030;-76
2022/10/28 13:26:25;;;;;;;12.35;5.03;;;21.00;99.90;;;;;;5092973;28;20028;-76
2022/10/28 13:28:55;;;;;;;14.85;5.28;;;21.00;99.90;;;;;;5092485;28;20727;-76
2022/10/28 13:31:21;;;;;;;13.02;4.47;;;21.00;99.90;;;;;;5081700;28;20016;-76
2022/10/28 13:33:54;;;;;;;15.20;4.63;;;21.00;99.90;;;;;;5080637;28;20473;-76
2022/10/28 13:36:29;;;;;;;10.13;5.13;;;20.90;99.90;;;;;;5079212;28;20032;-76
2022/10/28 13:39:01;;;;;;;23.05;6.20;;;20.90;99.90;;;;;;5094036;28;20446;-77
2022/10/28 13:41:38;;;;;;;16.60;5.45;;;21.00;99.90;;;;;;5093700;28;20020;-76
2022/10/28 13:44:07;;;;;;;18.08;5.32;;;21.10;99.90;;;;;;5093108;28;20123;-76
2022/10/28 13:46:57;;;;;;;16.63;5.57;;;21.20;99.90;;;;;;5071762;28;20452;-75
2022/10/28 13:49:25;;;;;;;16.80;5.82;;;21.30;99.90;;;;;;5083120;28;20024;-76
2022/10/28 13:52:01;;;;;;;22.15;6.00;;;21.30;99.90;;;;;;5093211;28;20024;-76
2022/10/28 13:54:51;;;;;;;18.73;5.53;;;21.30;99.90;;;;;;5078364;28;20024;-75
2022/10/28 13:57:38;;;;;;;18.67;6.13;;;21.30;99.90;;;;;;5083342;28;20104;-76
2022/10/28 14:00:22;;;;;;;19.75;5.97;;;21.30;99.90;;;;;;5076628;28;20028;-76
2022/10/28 14:02:48;;;;;;;17.17;4.95;;;21.30;99.90;;;;;;5093135;28;20055;-76
2022/10/28 14:05:24;;;;;;;12.77;4.75;;;21.30;99.90;;;;;;5093084;28;20101;-76
2022/10/28 14:08:16;;;;;;;14.27;5.18;;;21.30;99.90;;;;;;5083149;28;20026;-76
2022/10/28 14:11:05;;;;;;;14.25;4.32;;;21.30;99.90;;;;;;5083773;28;20024;-76
2022/10/28 14:13:36;;;;;;;9.70;3.95;;;21.30;99.90;;;;;;5085416;28;20077;-76
2022/10/28 14:16:30;;;;;;;17.77;4.20;;;21.30;99.90;;;;;;5076464;28;20468;-76
2022/10/28 14:19:08;;;;;;;10.80;3.55;;;21.30;99.90;;;;;;5083101;28;20119;-76
2022/10/28 14:21:48;;;;;;;15.60;3.75;;;21.30;99.90;;;;;;5092946;28;20051;-76
2022/10/28 14:24:32;;;;;;;17.25;4.68;;;21.30;99.90;;;;;;5078436;28;20032;-76
2022/10/28 14:27:06;;;;;;;10.68;4.30;;;21.30;99.90;;;;;;5083545;28;20487;-76
2022/10/28 14:29:47;;;;;;;11.02;3.90;;;21.20;99.90;;;;;;5089945;28;20060;-76
2022/10/28 14:32:32;;;;;;;14.32;4.68;;;21.20;99.90;;;;;;5090496;28;20020;-78
2022/10/28 14:35:19;;;;;;;18.17;4.88;;;21.20;99.90;;;;;;5096745;28;20108;-76
2022/10/28 14:38:07;;;;;;;11.82;3.90;;;21.10;99.90;;;;;;5089995;28;20024;-76
2022/10/28 14:40:48;;;;;;;12.10;4.30;;;21.10;99.90;;;;;;5090266;28;20042;-77
2022/10/28 14:43:27;;;;;;;14.02;4.55;;;21.10;99.90;;;;;;5090494;28;20039;-77
2022/10/28 14:46:13;;;;;;;15.07;4.82;;;21.10;99.90;;;;;;5090619;28;20031;-77
2022/10/28 14:48:54;;;;;;;20.38;5.65;;;21.00;99.90;;;;;;5091049;28;20023;-78
2022/10/28 14:51:24;;;;;;;11.98;4.90;;;21.10;99.90;;;;;;5094340;28;20526;-78
2022/10/28 14:53:53;;;;;;;11.77;4.32;;;21.10;99.90;;;;;;5089489;28;20023;-78
2022/10/28 14:56:30;;;;;;;19.42;4.35;;;21.00;99.90;;;;;;5092394;28;20031;-76
2022/10/28 14:59:24;;;;;;;13.63;4.85;;;21.10;99.90;;;;;;5090430;28;20058;-78
2022/10/28 15:01:58;;;;;;;11.55;4.05;;;21.10;99.90;;;;;;5092571;28;20020;-78
2022/10/28 15:04:28;;;;;;;17.45;4.35;;;21.00;99.90;;;;;;5095067;28;20023;-77
2022/10/28 15:06:57;;;;;;;9.48;3.95;;;21.00;99.90;;;;;;5088600;28;20097;-78
2022/10/28 15:09:33;;;;;;;10.05;3.50;;;21.00;99.90;;;;;;5094563;28;20254;-78
2022/10/28 15:12:16;;;;;;;11.80;4.22;;;20.90;99.90;;;;;;5091649;28;20055;-78
2022/10/28 15:14:49;;;;;;;11.82;4.05;;;20.90;99.90;;;;;;5091740;28;20407;-77
2022/10/28 15:17:35;;;;;;;16.57;4.33;;;20.90;99.90;;;;;;5090108;28;20026;-77
2022/10/28 15:20:31;;;;;;;14.90;6.18;;;20.80;99.90;;;;;;5089165;28;20028;-77
2022/10/28 15:23:21;;;;;;;12.27;4.88;;;20.80;99.90;;;;;;5086946;28;20049;-77
2022/10/28 15:26:13;;;;;;;13.75;5.53;;;20.70;99.90;;;;;;5091997;28;20091;-77
2022/10/28 15:28:47;;;;;;;15.13;6.18;;;20.60;99.90;;;;;;5087356;28;20020;-77
2022/10/28 15:31:16;;;;;;;17.33;5.53;;;20.60;99.90;;;;;;5090042;28;20027;-77
2022/10/28 15:33:45;;;;;;;18.17;5.30;;;20.50;99.90;;;;;;5090595;28;20020;-77
2022/10/28 15:36:19;;;;;;;22.58;6.18;;;20.50;99.90;;;;;;5090786;28;20036;-75
2022/10/28 15:38:45;;;;;;;14.27;5.63;;;20.40;99.90;;;;;;5092147;28;20020;-77
2022/10/28 15:41:36;;;;;;;10.80;6.00;;;20.40;99.90;;;;;;5087493;28;20531;-78
2022/10/28 15:44:20;;;;;;;24.23;6.05;;;20.30;99.90;;;;;;5091510;28;20044;-78